sensor_id;sensor_type;location;lat;lon;timestamp;P1;durP1;ratioP1;P2;durP2;ratioP2
19038;SDS011;9652;49.014;12.052;2022-09-27T00:01:23;2.10;;;1.90;;
19038;SDS011;9652;49.014;12.052;2022-09-27T00:03:51;3.43;;;2.27;;
19038;SDS011;9652;49.014;12.052;2022-09-27T00:06:23;2.23;;;2.03;;
19038;SDS011;9652;49.014;12.052;2022-09-27T00:08:52;2.53;;;2.03;;
19038;SDS011;9652;49.014;12.052;2022-09-27T00:11:22;2.57;;;2.10;;
19038;SDS011;9652;49.014;12.052;2022-09-27T00:13:53;2.30;;;2.00;;
19038;SDS011;9652;49.014;12.052;2022-09-27T00:16:24;3.03;;;1.93;;
19038;SDS011;9652;49.014;12.052;2022-09-27T00:18:56;2.43;;;2.23;;
19038;SDS011;9652;49.014;12.052;2022-09-27T00:21:25;1.70;;;1.53;;
19038;SDS011;9652;49.014;12.052;2022-09-27T00:23:54;2.07;;;1.97;;
19038;SDS011;9652;49.014;12.052;2022-09-27T00:26:21;2.00;;;1.90;;
19038;SDS011;9652;49.014;12.052;2022-09-27T00:28:48;2.17;;;1.97;;
19038;SDS011;9652;49.014;12.052;2022-09-27T00:31:18;2.50;;;2.10;;
19038;SDS011;9652;49.014;12.052;2022-09-27T00:33:48;1.50;;;1.40;;
19038;SDS011;9652;49.014;12.052;2022-09-27T00:36:17;1.90;;;1.80;;
19038;SDS011;9652;49.014;12.052;2022-09-27T00:38:46;1.83;;;1.63;;
19038;SDS011;9652;49.014;12.052;2022-09-27T00:41:15;2.00;;;1.80;;
19038;SDS011;9652;49.014;12.052;2022-09-27T00:43:47;2.00;;;1.90;;
19038;SDS011;9652;49.014;12.052;2022-09-27T00:46:19;1.93;;;1.73;;
19038;SDS011;9652;49.014;12.052;2022-09-27T00:49:03;1.80;;;1.70;;
19038;SDS011;9652;49.014;12.052;2022-09-27T00:51:38;3.53;;;1.50;;
19038;SDS011;9652;49.014;12.052;2022-09-27T00:54:09;1.67;;;1.57;;
19038;SDS011;9652;49.014;12.052;2022-09-27T00:56:40;1.80;;;1.70;;
19038;SDS011;9652;49.014;12.052;2022-09-27T00:59:10;2.17;;;1.77;;
19038;SDS011;9652;49.014;12.052;2022-09-27T01:01:46;1.80;;;1.70;;
19038;SDS011;9652;49.014;12.052;2022-09-27T01:04:16;1.90;;;1.80;;
19038;SDS011;9652;49.014;12.052;2022-09-27T01:06:49;2.77;;;2.40;;
19038;SDS011;9652;49.014;12.052;2022-09-27T01:09:16;3.43;;;2.00;;
19038;SDS011;9652;49.014;12.052;2022-09-27T01:11:46;2.27;;;1.70;;
19038;SDS011;9652;49.014;12.052;2022-09-27T01:14:33;2.10;;;1.90;;
19038;SDS011;9652;49.014;12.052;2022-09-27T01:17:16;1.83;;;1.53;;
19038;SDS011;9652;49.014;12.052;2022-09-27T01:20:06;1.90;;;1.70;;
19038;SDS011;9652;49.014;12.052;2022-09-27T01:23:13;1.70;;;1.60;;
19038;SDS011;9652;49.014;12.052;2022-09-27T01:26:10;2.83;;;1.80;;
19038;SDS011;9652;49.014;12.052;2022-09-27T01:28:50;1.97;;;1.77;;
19038;SDS011;9652;49.014;12.052;2022-09-27T01:31:32;1.77;;;1.67;;
19038;SDS011;9652;49.014;12.052;2022-09-27T01:34:10;2.17;;;1.80;;
19038;SDS011;9652;49.014;12.052;2022-09-27T01:36:52;1.77;;;1.67;;
19038;SDS011;9652;49.014;12.052;2022-09-27T01:39:35;2.40;;;2.07;;
19038;SDS011;9652;49.014;12.052;2022-09-27T01:42:41;2.20;;;2.00;;
19038;SDS011;9652;49.014;12.052;2022-09-27T01:45:21;1.93;;;1.73;;
19038;SDS011;9652;49.014;12.052;2022-09-27T01:48:08;1.90;;;1.80;;
19038;SDS011;9652;49.014;12.052;2022-09-27T01:50:50;1.90;;;1.80;;
19038;SDS011;9652;49.014;12.052;2022-09-27T01:53:26;1.60;;;1.50;;
19038;SDS011;9652;49.014;12.052;2022-09-27T01:56:25;1.80;;;1.70;;
19038;SDS011;9652;49.014;12.052;2022-09-27T01:59:04;1.53;;;1.43;;
19038;SDS011;9652;49.014;12.052;2022-09-27T02:01:42;1.57;;;1.47;;
19038;SDS011;9652;49.014;12.052;2022-09-27T02:04:18;1.97;;;1.77;;
19038;SDS011;9652;49.014;12.052;2022-09-27T02:07:12;1.63;;;1.53;;
19038;SDS011;9652;49.014;12.052;2022-09-27T02:09:47;1.83;;;1.73;;
19038;SDS011;9652;49.014;12.052;2022-09-27T02:12:25;2.13;;;2.03;;
19038;SDS011;9652;49.014;12.052;2022-09-27T02:15:00;1.60;;;1.50;;
19038;SDS011;9652;49.014;12.052;2022-09-27T02:17:37;1.60;;;1.50;;
19038;SDS011;9652;49.014;12.052;2022-09-27T02:20:17;1.77;;;1.67;;
19038;SDS011;9652;49.014;12.052;2022-09-27T02:22:56;1.70;;;1.60;;
19038;SDS011;9652;49.014;12.052;2022-09-27T02:25:39;1.60;;;1.50;;
19038;SDS011;9652;49.014;12.052;2022-09-27T02:28:17;2.87;;;1.80;;
19038;SDS011;9652;49.014;12.052;2022-09-27T02:30:53;1.63;;;1.53;;
19038;SDS011;9652;49.014;12.052;2022-09-27T02:33:25;1.80;;;1.47;;
19038;SDS011;9652;49.014;12.052;2022-09-27T02:36:01;3.83;;;1.83;;
19038;SDS011;9652;49.014;12.052;2022-09-27T02:38:29;2.10;;;1.90;;
19038;SDS011;9652;49.014;12.052;2022-09-27T02:40:58;2.30;;;2.10;;
19038;SDS011;9652;49.014;12.052;2022-09-27T02:43:26;2.17;;;2.07;;
19038;SDS011;9652;49.014;12.052;2022-09-27T02:46:06;2.17;;;1.90;;
19038;SDS011;9652;49.014;12.052;2022-09-27T02:48:53;1.60;;;1.50;;
19038;SDS011;9652;49.014;12.052;2022-09-27T02:51:40;3.97;;;1.83;;
19038;SDS011;9652;49.014;12.052;2022-09-27T02:54:20;3.03;;;2.03;;
19038;SDS011;9652;49.014;12.052;2022-09-27T02:57:06;1.40;;;1.30;;
19038;SDS011;9652;49.014;12.052;2022-09-27T03:00:06;2.70;;;1.70;;
19038;SDS011;9652;49.014;12.052;2022-09-27T03:03:00;1.93;;;1.63;;
19038;SDS011;9652;49.014;12.052;2022-09-27T03:05:47;4.63;;;1.77;;
19038;SDS011;9652;49.014;12.052;2022-09-27T03:08:21;1.60;;;1.50;;
19038;SDS011;9652;49.014;12.052;2022-09-27T03:10:49;2.33;;;1.57;;
19038;SDS011;9652;49.014;12.052;2022-09-27T03:13:16;1.60;;;1.50;;
19038;SDS011;9652;49.014;12.052;2022-09-27T03:15:45;1.50;;;1.40;;
19038;SDS011;9652;49.014;12.052;2022-09-27T03:18:32;1.87;;;1.50;;
19038;SDS011;9652;49.014;12.052;2022-09-27T03:21:22;1.70;;;1.60;;
19038;SDS011;9652;49.014;12.052;2022-09-27T03:23:50;2.13;;;1.60;;
19038;SDS011;9652;49.014;12.052;2022-09-27T03:26:18;1.80;;;1.70;;
19038;SDS011;9652;49.014;12.052;2022-09-27T03:28:45;1.80;;;1.70;;
19038;SDS011;9652;49.014;12.052;2022-09-27T03:31:12;1.70;;;1.60;;
19038;SDS011;9652;49.014;12.052;2022-09-27T03:33:45;1.50;;;1.47;;
19038;SDS011;9652;49.014;12.052;2022-09-27T03:36:12;1.83;;;1.70;;
19038;SDS011;9652;49.014;12.052;2022-09-27T03:38:40;1.27;;;1.20;;
19038;SDS011;9652;49.014;12.052;2022-09-27T03:41:11;2.83;;;1.70;;
19038;SDS011;9652;49.014;12.052;2022-09-27T03:43:39;1.87;;;1.77;;
19038;SDS011;9652;49.014;12.052;2022-09-27T03:46:06;1.60;;;1.50;;
19038;SDS011;9652;49.014;12.052;2022-09-27T03:48:33;1.90;;;1.60;;
19038;SDS011;9652;49.014;12.052;2022-09-27T03:51:00;1.60;;;1.50;;
19038;SDS011;9652;49.014;12.052;2022-09-27T03:53:28;1.80;;;1.70;;
19038;SDS011;9652;49.014;12.052;2022-09-27T03:55:55;1.50;;;1.40;;
19038;SDS011;9652;49.014;12.052;2022-09-27T03:58:24;1.53;;;1.40;;
19038;SDS011;9652;49.014;12.052;2022-09-27T04:00:51;1.77;;;1.53;;
19038;SDS011;9652;49.014;12.052;2022-09-27T04:03:18;1.40;;;1.30;;
19038;SDS011;9652;49.014;12.052;2022-09-27T04:05:51;1.60;;;1.50;;
19038;SDS011;9652;49.014;12.052;2022-09-27T04:08:25;1.57;;;1.47;;
19038;SDS011;9652;49.014;12.052;2022-09-27T04:10:52;2.77;;;1.20;;
19038;SDS011;9652;49.014;12.052;2022-09-27T04:13:19;1.80;;;1.70;;
19038;SDS011;9652;49.014;12.052;2022-09-27T04:15:52;1.50;;;1.40;;
19038;SDS011;9652;49.014;12.052;2022-09-27T04:18:41;2.10;;;1.57;;
19038;SDS011;9652;49.014;12.052;2022-09-27T04:21:40;1.63;;;1.47;;
19038;SDS011;9652;49.014;12.052;2022-09-27T04:24:08;1.93;;;1.73;;
19038;SDS011;9652;49.014;12.052;2022-09-27T04:26:37;1.27;;;1.17;;
19038;SDS011;9652;49.014;12.052;2022-09-27T04:29:09;1.53;;;1.30;;
19038;SDS011;9652;49.014;12.052;2022-09-27T04:31:41;1.67;;;1.57;;
19038;SDS011;9652;49.014;12.052;2022-09-27T04:34:35;1.37;;;1.30;;
19038;SDS011;9652;49.014;12.052;2022-09-27T04:37:22;1.67;;;1.57;;
19038;SDS011;9652;49.014;12.052;2022-09-27T04:39:54;1.40;;;1.30;;
19038;SDS011;9652;49.014;12.052;2022-09-27T04:42:21;1.40;;;1.30;;
19038;SDS011;9652;49.014;12.052;2022-09-27T04:44:48;1.57;;;1.47;;
19038;SDS011;9652;49.014;12.052;2022-09-27T04:47:16;2.07;;;1.90;;
19038;SDS011;9652;49.014;12.052;2022-09-27T04:49:45;1.43;;;1.33;;
19038;SDS011;9652;49.014;12.052;2022-09-27T04:52:12;1.63;;;1.53;;
19038;SDS011;9652;49.014;12.052;2022-09-27T04:54:40;1.87;;;1.40;;
19038;SDS011;9652;49.014;12.052;2022-09-27T04:57:10;1.60;;;1.50;;
19038;SDS011;9652;49.014;12.052;2022-09-27T04:59:38;1.67;;;1.57;;
19038;SDS011;9652;49.014;12.052;2022-09-27T05:02:06;1.57;;;1.47;;
19038;SDS011;9652;49.014;12.052;2022-09-27T05:04:55;1.60;;;1.50;;
19038;SDS011;9652;49.014;12.052;2022-09-27T05:07:29;1.53;;;1.43;;
19038;SDS011;9652;49.014;12.052;2022-09-27T05:10:03;1.60;;;1.50;;
19038;SDS011;9652;49.014;12.052;2022-09-27T05:12:31;1.50;;;1.40;;
19038;SDS011;9652;49.014;12.052;2022-09-27T05:15:00;1.57;;;1.47;;
19038;SDS011;9652;49.014;12.052;2022-09-27T05:18:03;2.30;;;1.70;;
19038;SDS011;9652;49.014;12.052;2022-09-27T05:20:52;1.40;;;1.30;;
19038;SDS011;9652;49.014;12.052;2022-09-27T05:23:26;1.80;;;1.70;;
19038;SDS011;9652;49.014;12.052;2022-09-27T05:25:53;1.73;;;1.63;;
19038;SDS011;9652;49.014;12.052;2022-09-27T05:28:20;1.67;;;1.57;;
19038;SDS011;9652;49.014;12.052;2022-09-27T05:30:48;3.00;;;2.57;;
19038;SDS011;9652;49.014;12.052;2022-09-27T05:33:20;1.70;;;1.50;;
19038;SDS011;9652;49.014;12.052;2022-09-27T05:35:52;1.60;;;1.50;;
19038;SDS011;9652;49.014;12.052;2022-09-27T05:38:23;1.50;;;1.40;;
19038;SDS011;9652;49.014;12.052;2022-09-27T05:40:54;1.67;;;1.57;;
19038;SDS011;9652;49.014;12.052;2022-09-27T05:43:22;1.47;;;1.37;;
19038;SDS011;9652;49.014;12.052;2022-09-27T05:45:50;1.47;;;1.37;;
19038;SDS011;9652;49.014;12.052;2022-09-27T05:48:19;1.20;;;1.20;;
19038;SDS011;9652;49.014;12.052;2022-09-27T05:50:59;1.30;;;1.20;;
19038;SDS011;9652;49.014;12.052;2022-09-27T05:53:28;1.47;;;1.43;;
19038;SDS011;9652;49.014;12.052;2022-09-27T05:55:59;1.70;;;1.60;;
19038;SDS011;9652;49.014;12.052;2022-09-27T05:58:37;1.90;;;1.70;;
19038;SDS011;9652;49.014;12.052;2022-09-27T06:01:12;1.70;;;1.40;;
19038;SDS011;9652;49.014;12.052;2022-09-27T06:03:59;1.27;;;1.17;;
19038;SDS011;9652;49.014;12.052;2022-09-27T06:06:48;1.03;;;1.03;;
19038;SDS011;9652;49.014;12.052;2022-09-27T06:09:16;1.93;;;1.80;;
19038;SDS011;9652;49.014;12.052;2022-09-27T06:11:45;1.10;;;1.10;;
19038;SDS011;9652;49.014;12.052;2022-09-27T06:14:14;1.03;;;1.03;;
19038;SDS011;9652;49.014;12.052;2022-09-27T06:17:05;1.13;;;1.13;;
19038;SDS011;9652;49.014;12.052;2022-09-27T06:19:35;1.30;;;1.30;;
19038;SDS011;9652;49.014;12.052;2022-09-27T06:22:04;1.80;;;1.20;;
19038;SDS011;9652;49.014;12.052;2022-09-27T06:24:52;3.30;;;1.40;;
19038;SDS011;9652;49.014;12.052;2022-09-27T06:27:22;1.40;;;1.27;;
19038;SDS011;9652;49.014;12.052;2022-09-27T06:30:02;2.20;;;1.33;;
19038;SDS011;9652;49.014;12.052;2022-09-27T06:32:42;1.57;;;1.30;;
19038;SDS011;9652;49.014;12.052;2022-09-27T06:35:17;1.27;;;1.20;;
19038;SDS011;9652;49.014;12.052;2022-09-27T06:37:45;1.33;;;1.23;;
19038;SDS011;9652;49.014;12.052;2022-09-27T06:40:12;1.40;;;1.30;;
19038;SDS011;9652;49.014;12.052;2022-09-27T06:43:02;1.20;;;1.17;;
19038;SDS011;9652;49.014;12.052;2022-09-27T06:45:50;3.47;;;1.30;;
19038;SDS011;9652;49.014;12.052;2022-09-27T06:48:31;1.47;;;1.43;;
19038;SDS011;9652;49.014;12.052;2022-09-27T06:51:19;3.43;;;1.40;;
19038;SDS011;9652;49.014;12.052;2022-09-27T06:53:49;1.03;;;1.03;;
19038;SDS011;9652;49.014;12.052;2022-09-27T06:56:17;2.10;;;1.20;;
19038;SDS011;9652;49.014;12.052;2022-09-27T06:58:47;1.63;;;1.53;;
19038;SDS011;9652;49.014;12.052;2022-09-27T07:01:41;1.30;;;1.30;;
19038;SDS011;9652;49.014;12.052;2022-09-27T07:04:08;1.43;;;1.30;;
19038;SDS011;9652;49.014;12.052;2022-09-27T07:06:59;1.40;;;1.07;;
19038;SDS011;9652;49.014;12.052;2022-09-27T07:09:34;2.90;;;1.20;;
19038;SDS011;9652;49.014;12.052;2022-09-27T07:12:03;1.00;;;1.00;;
19038;SDS011;9652;49.014;12.052;2022-09-27T07:14:31;1.30;;;1.30;;
19038;SDS011;9652;49.014;12.052;2022-09-27T07:17:00;1.93;;;1.20;;
19038;SDS011;9652;49.014;12.052;2022-09-27T07:19:32;1.20;;;1.10;;
19038;SDS011;9652;49.014;12.052;2022-09-27T07:22:00;1.00;;;1.00;;
19038;SDS011;9652;49.014;12.052;2022-09-27T07:24:28;1.10;;;1.00;;
19038;SDS011;9652;49.014;12.052;2022-09-27T07:26:56;0.90;;;0.90;;
19038;SDS011;9652;49.014;12.052;2022-09-27T07:29:24;1.70;;;1.30;;
19038;SDS011;9652;49.014;12.052;2022-09-27T07:31:52;1.63;;;1.10;;
19038;SDS011;9652;49.014;12.052;2022-09-27T07:34:19;1.30;;;1.20;;
19038;SDS011;9652;49.014;12.052;2022-09-27T07:36:46;1.00;;;1.00;;
19038;SDS011;9652;49.014;12.052;2022-09-27T07:39:13;1.67;;;1.23;;
19038;SDS011;9652;49.014;12.052;2022-09-27T07:41:41;1.00;;;1.00;;
19038;SDS011;9652;49.014;12.052;2022-09-27T07:44:11;1.07;;;1.07;;
19038;SDS011;9652;49.014;12.052;2022-09-27T07:47:05;1.10;;;1.10;;
19038;SDS011;9652;49.014;12.052;2022-09-27T07:49:58;0.90;;;0.90;;
19038;SDS011;9652;49.014;12.052;2022-09-27T07:52:39;1.00;;;1.00;;
19038;SDS011;9652;49.014;12.052;2022-09-27T07:55:27;0.90;;;0.90;;
19038;SDS011;9652;49.014;12.052;2022-09-27T07:58:03;3.37;;;1.30;;
19038;SDS011;9652;49.014;12.052;2022-09-27T08:00:35;1.40;;;1.30;;
19038;SDS011;9652;49.014;12.052;2022-09-27T08:03:04;1.30;;;1.13;;
19038;SDS011;9652;49.014;12.052;2022-09-27T08:05:33;2.90;;;1.20;;
19038;SDS011;9652;49.014;12.052;2022-09-27T08:08:01;0.97;;;0.87;;
19038;SDS011;9652;49.014;12.052;2022-09-27T08:10:30;1.30;;;1.07;;
19038;SDS011;9652;49.014;12.052;2022-09-27T08:12:58;1.23;;;1.23;;
19038;SDS011;9652;49.014;12.052;2022-09-27T08:15:27;1.10;;;1.10;;
19038;SDS011;9652;49.014;12.052;2022-09-27T08:17:56;1.30;;;1.20;;
19038;SDS011;9652;49.014;12.052;2022-09-27T08:20:55;2.23;;;0.87;;
19038;SDS011;9652;49.014;12.052;2022-09-27T08:23:25;0.80;;;0.80;;
19038;SDS011;9652;49.014;12.052;2022-09-27T08:26:11;1.00;;;0.90;;
19038;SDS011;9652;49.014;12.052;2022-09-27T08:28:49;1.20;;;1.10;;
19038;SDS011;9652;49.014;12.052;2022-09-27T08:31:20;1.13;;;0.83;;
19038;SDS011;9652;49.014;12.052;2022-09-27T08:33:53;1.20;;;1.10;;
19038;SDS011;9652;49.014;12.052;2022-09-27T08:36:21;1.27;;;1.17;;
19038;SDS011;9652;49.014;12.052;2022-09-27T08:38:49;1.60;;;0.90;;
19038;SDS011;9652;49.014;12.052;2022-09-27T08:41:23;0.90;;;0.90;;
19038;SDS011;9652;49.014;12.052;2022-09-27T08:44:08;1.17;;;1.07;;
19038;SDS011;9652;49.014;12.052;2022-09-27T08:47:03;0.73;;;0.73;;
19038;SDS011;9652;49.014;12.052;2022-09-27T08:49:42;0.90;;;0.63;;
19038;SDS011;9652;49.014;12.052;2022-09-27T08:52:18;0.90;;;0.90;;
19038;SDS011;9652;49.014;12.052;2022-09-27T08:55:02;0.70;;;0.70;;
19038;SDS011;9652;49.014;12.052;2022-09-27T08:57:42;3.53;;;0.80;;
19038;SDS011;9652;49.014;12.052;2022-09-27T09:00:15;0.70;;;0.70;;
19038;SDS011;9652;49.014;12.052;2022-09-27T09:02:43;1.23;;;0.80;;
19038;SDS011;9652;49.014;12.052;2022-09-27T09:05:13;1.00;;;1.00;;
19038;SDS011;9652;49.014;12.052;2022-09-27T09:07:54;1.07;;;0.73;;
19038;SDS011;9652;49.014;12.052;2022-09-27T09:10:54;2.47;;;0.80;;
19038;SDS011;9652;49.014;12.052;2022-09-27T09:14:09;0.70;;;0.70;;
19038;SDS011;9652;49.014;12.052;2022-09-27T09:17:09;0.73;;;0.73;;
19038;SDS011;9652;49.014;12.052;2022-09-27T09:20:18;2.17;;;0.70;;
19038;SDS011;9652;49.014;12.052;2022-09-27T09:25:56;1.03;;;0.90;;
19038;SDS011;9652;49.014;12.052;2022-09-27T09:28:38;0.97;;;0.77;;
19038;SDS011;9652;49.014;12.052;2022-09-27T09:31:20;0.80;;;0.80;;
19038;SDS011;9652;49.014;12.052;2022-09-27T09:34:04;1.63;;;1.10;;
19038;SDS011;9652;49.014;12.052;2022-09-27T09:36:45;0.90;;;0.90;;
19038;SDS011;9652;49.014;12.052;2022-09-27T09:39:21;0.80;;;0.80;;
19038;SDS011;9652;49.014;12.052;2022-09-27T09:41:59;0.70;;;0.70;;
19038;SDS011;9652;49.014;12.052;2022-09-27T09:44:38;0.80;;;0.80;;
19038;SDS011;9652;49.014;12.052;2022-09-27T09:47:20;1.40;;;0.70;;
19038;SDS011;9652;49.014;12.052;2022-09-27T09:49:56;0.60;;;0.60;;
19038;SDS011;9652;49.014;12.052;2022-09-27T09:52:35;0.57;;;0.57;;
19038;SDS011;9652;49.014;12.052;2022-09-27T09:55:12;0.67;;;0.67;;
19038;SDS011;9652;49.014;12.052;2022-09-27T09:57:58;0.70;;;0.70;;
19038;SDS011;9652;49.014;12.052;2022-09-27T10:00:42;0.70;;;0.70;;
19038;SDS011;9652;49.014;12.052;2022-09-27T10:03:12;0.70;;;0.70;;
19038;SDS011;9652;49.014;12.052;2022-09-27T10:05:40;0.60;;;0.60;;
19038;SDS011;9652;49.014;12.052;2022-09-27T10:08:12;0.70;;;0.70;;
19038;SDS011;9652;49.014;12.052;2022-09-27T10:10:48;0.70;;;0.70;;
19038;SDS011;9652;49.014;12.052;2022-09-27T10:13:35;0.50;;;0.50;;
19038;SDS011;9652;49.014;12.052;2022-09-27T10:16:04;0.80;;;0.80;;
19038;SDS011;9652;49.014;12.052;2022-09-27T10:18:38;0.70;;;0.70;;
19038;SDS011;9652;49.014;12.052;2022-09-27T10:21:10;0.80;;;0.80;;
19038;SDS011;9652;49.014;12.052;2022-09-27T10:26:58;1.70;;;1.10;;
19038;SDS011;9652;49.014;12.052;2022-09-27T10:29:30;5.63;;;3.17;;
19038;SDS011;9652;49.014;12.052;2022-09-27T10:32:00;3.33;;;1.90;;
19038;SDS011;9652;49.014;12.052;2022-09-27T10:34:36;2.43;;;1.87;;
19038;SDS011;9652;49.014;12.052;2022-09-27T10:37:14;1.40;;;1.30;;
19038;SDS011;9652;49.014;12.052;2022-09-27T10:40:18;1.00;;;1.00;;
19038;SDS011;9652;49.014;12.052;2022-09-27T10:42:56;0.90;;;0.90;;
19038;SDS011;9652;49.014;12.052;2022-09-27T10:45:35;0.87;;;0.87;;
19038;SDS011;9652;49.014;12.052;2022-09-27T10:48:17;1.00;;;1.00;;
19038;SDS011;9652;49.014;12.052;2022-09-27T10:50:56;1.20;;;0.80;;
19038;SDS011;9652;49.014;12.052;2022-09-27T10:53:34;1.40;;;0.80;;
19038;SDS011;9652;49.014;12.052;2022-09-27T10:56:11;1.47;;;0.90;;
19038;SDS011;9652;49.014;12.052;2022-09-27T10:58:49;0.80;;;0.80;;
19038;SDS011;9652;49.014;12.052;2022-09-27T11:01:18;0.80;;;0.80;;
19038;SDS011;9652;49.014;12.052;2022-09-27T11:04:02;0.90;;;0.83;;
19038;SDS011;9652;49.014;12.052;2022-09-27T11:06:32;1.10;;;1.10;;
19038;SDS011;9652;49.014;12.052;2022-09-27T11:09:14;1.20;;;1.10;;
19038;SDS011;9652;49.014;12.052;2022-09-27T11:12:24;1.10;;;1.00;;
19038;SDS011;9652;49.014;12.052;2022-09-27T11:15:23;0.67;;;0.67;;
19038;SDS011;9652;49.014;12.052;2022-09-27T11:17:57;0.80;;;0.80;;
19038;SDS011;9652;49.014;12.052;2022-09-27T11:20:36;0.83;;;0.83;;
19038;SDS011;9652;49.014;12.052;2022-09-27T11:23:19;1.00;;;0.80;;
19038;SDS011;9652;49.014;12.052;2022-09-27T11:26:16;1.07;;;1.07;;
19038;SDS011;9652;49.014;12.052;2022-09-27T11:29:03;1.07;;;1.07;;
19038;SDS011;9652;49.014;12.052;2022-09-27T11:32:13;0.90;;;0.90;;
19038;SDS011;9652;49.014;12.052;2022-09-27T11:34:59;0.87;;;0.87;;
19038;SDS011;9652;49.014;12.052;2022-09-27T11:38:01;1.00;;;1.00;;
19038;SDS011;9652;49.014;12.052;2022-09-27T11:40:46;1.00;;;1.00;;
19038;SDS011;9652;49.014;12.052;2022-09-27T11:46:59;0.90;;;0.90;;
19038;SDS011;9652;49.014;12.052;2022-09-27T11:49:45;0.83;;;0.83;;
19038;SDS011;9652;49.014;12.052;2022-09-27T11:53:05;0.90;;;0.90;;
19038;SDS011;9652;49.014;12.052;2022-09-27T11:55:51;1.00;;;1.00;;
19038;SDS011;9652;49.014;12.052;2022-09-27T11:58:35;1.20;;;1.10;;
19038;SDS011;9652;49.014;12.052;2022-09-27T12:01:29;1.13;;;1.13;;
19038;SDS011;9652;49.014;12.052;2022-09-27T12:04:19;1.20;;;1.20;;
19038;SDS011;9652;49.014;12.052;2022-09-27T12:07:18;2.00;;;1.00;;
19038;SDS011;9652;49.014;12.052;2022-09-27T12:09:59;0.90;;;0.90;;
19038;SDS011;9652;49.014;12.052;2022-09-27T12:12:33;1.00;;;1.00;;
19038;SDS011;9652;49.014;12.052;2022-09-27T12:15:05;1.50;;;1.40;;
19038;SDS011;9652;49.014;12.052;2022-09-27T12:17:43;0.90;;;0.90;;
19038;SDS011;9652;49.014;12.052;2022-09-27T12:20:16;0.83;;;0.83;;
19038;SDS011;9652;49.014;12.052;2022-09-27T12:22:51;0.70;;;0.70;;
19038;SDS011;9652;49.014;12.052;2022-09-27T12:25:29;0.80;;;0.80;;
19038;SDS011;9652;49.014;12.052;2022-09-27T12:28:16;0.70;;;0.70;;
19038;SDS011;9652;49.014;12.052;2022-09-27T12:30:52;1.17;;;1.10;;
19038;SDS011;9652;49.014;12.052;2022-09-27T12:33:33;0.70;;;0.70;;
19038;SDS011;9652;49.014;12.052;2022-09-27T12:36:09;0.50;;;0.50;;
19038;SDS011;9652;49.014;12.052;2022-09-27T12:38:45;0.80;;;0.80;;
19038;SDS011;9652;49.014;12.052;2022-09-27T12:41:21;1.20;;;0.70;;
19038;SDS011;9652;49.014;12.052;2022-09-27T12:44:12;0.70;;;0.70;;
19038;SDS011;9652;49.014;12.052;2022-09-27T12:46:51;0.67;;;0.67;;
19038;SDS011;9652;49.014;12.052;2022-09-27T12:49:35;0.70;;;0.70;;
19038;SDS011;9652;49.014;12.052;2022-09-27T12:52:20;0.80;;;0.70;;
19038;SDS011;9652;49.014;12.052;2022-09-27T12:55:00;0.90;;;0.90;;
19038;SDS011;9652;49.014;12.052;2022-09-27T12:57:49;0.70;;;0.70;;
19038;SDS011;9652;49.014;12.052;2022-09-27T13:00:49;0.80;;;0.80;;
19038;SDS011;9652;49.014;12.052;2022-09-27T13:03:25;1.00;;;0.80;;
19038;SDS011;9652;49.014;12.052;2022-09-27T13:06:33;0.60;;;0.60;;
19038;SDS011;9652;49.014;12.052;2022-09-27T13:12:36;0.60;;;0.60;;
19038;SDS011;9652;49.014;12.052;2022-09-27T13:15:12;0.70;;;0.70;;
19038;SDS011;9652;49.014;12.052;2022-09-27T13:17:50;2.13;;;0.70;;
19038;SDS011;9652;49.014;12.052;2022-09-27T13:20:42;0.73;;;0.60;;
19038;SDS011;9652;49.014;12.052;2022-09-27T13:26:48;0.70;;;0.70;;
19038;SDS011;9652;49.014;12.052;2022-09-27T13:29:23;1.00;;;1.00;;
19038;SDS011;9652;49.014;12.052;2022-09-27T13:32:10;0.80;;;0.80;;
19038;SDS011;9652;49.014;12.052;2022-09-27T13:35:09;1.37;;;0.93;;
19038;SDS011;9652;49.014;12.052;2022-09-27T13:37:48;0.70;;;0.70;;
19038;SDS011;9652;49.014;12.052;2022-09-27T13:40:33;0.80;;;0.80;;
19038;SDS011;9652;49.014;12.052;2022-09-27T13:43:20;0.70;;;0.70;;
19038;SDS011;9652;49.014;12.052;2022-09-27T13:46:15;0.67;;;0.67;;
19038;SDS011;9652;49.014;12.052;2022-09-27T13:48:49;0.60;;;0.60;;
19038;SDS011;9652;49.014;12.052;2022-09-27T13:51:32;0.77;;;0.77;;
19038;SDS011;9652;49.014;12.052;2022-09-27T13:54:09;0.97;;;0.80;;
19038;SDS011;9652;49.014;12.052;2022-09-27T14:00:13;0.80;;;0.80;;
19038;SDS011;9652;49.014;12.052;2022-09-27T14:02:53;1.10;;;0.80;;
19038;SDS011;9652;49.014;12.052;2022-09-27T14:05:29;3.50;;;0.80;;
19038;SDS011;9652;49.014;12.052;2022-09-27T14:08:03;1.87;;;0.70;;
19038;SDS011;9652;49.014;12.052;2022-09-27T14:10:41;0.80;;;0.80;;
19038;SDS011;9652;49.014;12.052;2022-09-27T14:13:11;0.50;;;0.50;;
19038;SDS011;9652;49.014;12.052;2022-09-27T14:15:53;1.00;;;0.80;;
19038;SDS011;9652;49.014;12.052;2022-09-27T14:18:26;0.80;;;0.80;;
19038;SDS011;9652;49.014;12.052;2022-09-27T14:21:05;0.63;;;0.60;;
19038;SDS011;9652;49.014;12.052;2022-09-27T14:27:22;0.80;;;0.80;;
19038;SDS011;9652;49.014;12.052;2022-09-27T14:30:07;1.07;;;0.97;;
19038;SDS011;9652;49.014;12.052;2022-09-27T14:32:45;0.90;;;0.90;;
19038;SDS011;9652;49.014;12.052;2022-09-27T14:35:20;1.80;;;0.90;;
19038;SDS011;9652;49.014;12.052;2022-09-27T14:38:07;2.10;;;1.10;;
19038;SDS011;9652;49.014;12.052;2022-09-27T14:40:40;0.70;;;0.70;;
19038;SDS011;9652;49.014;12.052;2022-09-27T14:43:10;0.80;;;0.80;;
19038;SDS011;9652;49.014;12.052;2022-09-27T14:45:45;0.97;;;0.97;;
19038;SDS011;9652;49.014;12.052;2022-09-27T14:48:20;1.07;;;1.03;;
19038;SDS011;9652;49.014;12.052;2022-09-27T14:50:52;0.90;;;0.90;;
19038;SDS011;9652;49.014;12.052;2022-09-27T14:53:25;0.83;;;0.83;;
19038;SDS011;9652;49.014;12.052;2022-09-27T14:55:54;0.97;;;0.97;;
19038;SDS011;9652;49.014;12.052;2022-09-27T14:58:22;0.90;;;0.83;;
19038;SDS011;9652;49.014;12.052;2022-09-27T15:00:52;1.30;;;1.00;;
19038;SDS011;9652;49.014;12.052;2022-09-27T15:03:21;2.40;;;1.10;;
19038;SDS011;9652;49.014;12.052;2022-09-27T15:05:54;1.20;;;0.70;;
19038;SDS011;9652;49.014;12.052;2022-09-27T15:08:24;0.87;;;0.87;;
19038;SDS011;9652;49.014;12.052;2022-09-27T15:10:57;1.10;;;1.00;;
19038;SDS011;9652;49.014;12.052;2022-09-27T15:13:25;2.50;;;0.77;;
19038;SDS011;9652;49.014;12.052;2022-09-27T15:15:54;1.50;;;0.97;;
19038;SDS011;9652;49.014;12.052;2022-09-27T15:18:30;1.27;;;0.90;;
19038;SDS011;9652;49.014;12.052;2022-09-27T15:21:05;1.40;;;1.30;;
19038;SDS011;9652;49.014;12.052;2022-09-27T15:23:34;1.50;;;1.40;;
19038;SDS011;9652;49.014;12.052;2022-09-27T15:26:07;1.10;;;1.00;;
19038;SDS011;9652;49.014;12.052;2022-09-27T15:28:41;5.43;;;1.40;;
19038;SDS011;9652;49.014;12.052;2022-09-27T15:31:12;1.50;;;1.40;;
19038;SDS011;9652;49.014;12.052;2022-09-27T15:33:40;4.20;;;1.50;;
19038;SDS011;9652;49.014;12.052;2022-09-27T15:36:17;2.03;;;1.50;;
19038;SDS011;9652;49.014;12.052;2022-09-27T15:39:20;1.30;;;1.17;;
19038;SDS011;9652;49.014;12.052;2022-09-27T15:42:07;1.60;;;1.50;;
19038;SDS011;9652;49.014;12.052;2022-09-27T15:44:42;1.60;;;1.50;;
19038;SDS011;9652;49.014;12.052;2022-09-27T15:50:32;1.20;;;1.20;;
19038;SDS011;9652;49.014;12.052;2022-09-27T15:53:01;1.23;;;1.20;;
19038;SDS011;9652;49.014;12.052;2022-09-27T15:55:31;1.10;;;1.10;;
19038;SDS011;9652;49.014;12.052;2022-09-27T15:58:04;0.90;;;0.90;;
19038;SDS011;9652;49.014;12.052;2022-09-27T16:00:49;2.60;;;1.10;;
19038;SDS011;9652;49.014;12.052;2022-09-27T16:03:19;1.70;;;1.50;;
19038;SDS011;9652;49.014;12.052;2022-09-27T16:05:46;2.10;;;1.47;;
19038;SDS011;9652;49.014;12.052;2022-09-27T16:08:13;1.57;;;1.37;;
19038;SDS011;9652;49.014;12.052;2022-09-27T16:10:41;1.63;;;1.47;;
19038;SDS011;9652;49.014;12.052;2022-09-27T16:13:11;2.10;;;1.50;;
19038;SDS011;9652;49.014;12.052;2022-09-27T16:15:38;1.87;;;1.77;;